Time;durP1;ratioP1;P1;durP2;ratioP2;P2;SDS_P1;SDS_P2;PMS_P1;PMS_P2;Temp;Humidity;BMP_temperature;BMP_pressure;BME280_temperature;BME280_humidity;BME280_pressure;Samples;Min_cycle;Max_cycle;Signal;HPM_P1;HPM_P2
2022/11/08 00:02:19;;;;;;;18.15;12.68;;;;;;;8.71;96.00;101070.19;5071512;28;20074;-72
2022/11/08 00:04:44;;;;;;;18.65;12.70;;;;;;;8.66;96.72;101058.78;5069136;28;20064;-69
2022/11/08 00:15:23;;;;;;;21.02;12.15;;;;;;;8.67;96.81;101056.31;5070897;28;20024;-72
2022/11/08 00:17:48;;;;;;;18.35;12.02;;;;;;;8.72;96.75;101057.44;5071232;28;20032;-74
2022/11/08 00:20:14;;;;;;;18.40;11.23;;;;;;;8.64;96.48;101032.97;5068394;28;20032;-70
2022/11/08 00:22:39;;;;;;;19.52;11.55;;;;;;;8.80;96.77;101054.34;5051213;28;20116;-73
2022/11/08 00:25:05;;;;;;;17.75;10.27;;;;;;;8.73;97.52;101058.31;5050445;28;20028;-71
2022/11/08 00:27:31;;;;;;;16.55;9.88;;;;;;;8.77;98.61;101065.38;5082127;28;20065;-71
2022/11/08 00:29:57;;;;;;;15.75;9.75;;;;;;;8.78;98.81;101063.72;5051069;28;20064;-72
2022/11/08 00:32:24;;;;;;;18.38;10.27;;;;;;;8.83;99.06;101065.72;5051042;28;20052;-70
2022/11/08 00:34:50;;;;;;;16.80;9.50;;;;;;;8.92;98.65;101055.00;5051175;28;20405;-69
2022/11/08 00:37:17;;;;;;;19.75;9.45;;;;;;;8.97;98.16;101039.81;5050756;28;20068;-69
2022/11/08 00:39:43;;;;;;;14.43;8.88;;;;;;;8.83;97.51;101010.78;5051086;28;20060;-69
2022/11/08 00:42:09;;;;;;;20.10;9.68;;;;;;;9.12;97.48;101053.50;5068547;28;20056;-71
2022/11/08 00:44:34;;;;;;;13.85;9.30;;;;;;;9.10;97.33;101042.22;5071029;28;20776;-69
2022/11/08 00:47:00;;;;;;;19.90;9.43;;;;;;;9.13;96.84;101056.97;5069281;28;20059;-73
2022/11/08 00:49:26;;;;;;;22.90;10.80;;;;;;;9.02;96.78;101054.72;5067987;28;20044;-72
2022/11/08 00:51:51;;;;;;;21.60;13.05;;;;;;;8.92;95.89;101041.25;5065379;28;20020;-70
2022/11/08 00:54:19;;;;;;;20.55;12.52;;;;;;;8.46;95.59;101057.66;5062114;28;20403;-71
2022/11/08 00:56:46;;;;;;;22.15;13.73;;;;;;;8.08;97.24;101055.59;5063400;28;20052;-71
2022/11/08 00:59:13;;;;;;;16.00;11.43;;;;;;;7.71;97.72;101035.53;5070123;28;20024;-69
2022/11/08 01:01:39;;;;;;;25.05;13.82;;;;;;;7.64;97.84;101043.69;5069863;28;20031;-72
2022/11/08 01:04:05;;;;;;;23.90;13.60;;;;;;;7.61;98.48;101044.38;5071182;28;20028;-71
2022/11/08 01:06:30;;;;;;;24.58;14.27;;;;;;;7.56;97.72;101032.06;5071314;28;20051;-68
2022/11/08 01:08:56;;;;;;;22.38;13.57;;;;;;;7.45;97.90;101026.28;5071219;28;20414;-71
2022/11/08 01:11:24;;;;;;;21.63;13.23;;;;;;;7.49;98.25;101040.19;5070336;28;20196;-70
2022/11/08 01:13:51;;;;;;;29.42;15.05;;;;;;;7.20;98.18;100996.63;5069892;28;20123;-69
2022/11/08 01:16:21;;;;;;;24.83;14.07;;;;;;;7.05;98.65;100986.31;5071081;28;20100;-69
2022/11/08 01:18:49;;;;;;;20.83;14.00;;;;;;;7.32;99.01;101032.41;5071029;28;20060;-69
2022/11/08 01:21:14;;;;;;;26.55;15.10;;;;;;;7.32;99.06;101036.66;5071272;28;20024;-69
2022/11/08 01:23:41;;;;;;;23.75;14.55;;;;;;;7.10;99.01;100989.13;5071294;28;20447;-68
2022/11/08 01:26:13;;;;;;;27.08;14.85;;;;;;;7.41;98.78;101014.06;5069432;28;20028;-72
2022/11/08 01:28:38;;;;;;;23.10;14.82;;;;;;;7.54;98.48;101025.94;5070798;28;20037;-68
2022/11/08 01:31:10;;;;;;;20.27;14.55;;;;;;;7.65;98.42;101031.69;5070915;28;20039;-73
2022/11/08 01:33:36;;;;;;;27.58;15.63;;;;;;;7.54;98.77;101023.38;5070792;28;20021;-69
2022/11/08 01:36:06;;;;;;;31.60;16.92;;;;;;;7.38;99.43;101013.91;5070044;28;20037;-72
2022/11/08 01:38:31;;;;;;;30.30;17.23;;;;;;;7.51;99.23;101034.34;5070799;28;20028;-69
2022/11/08 01:40:57;;;;;;;24.85;16.77;;;;;;;7.64;98.58;101030.84;5070888;28;20029;-70
2022/11/08 01:43:25;;;;;;;26.10;17.17;;;;;;;7.75;98.15;101039.13;5071033;28;20402;-69
2022/11/08 01:46:11;;;;;;;22.58;14.05;;;;;;;7.83;97.25;101031.88;5070799;28;20024;-69
2022/11/08 01:49:12;;;;;;;21.50;13.43;;;;;;;7.92;94.91;101027.25;5070645;28;20052;-70
2022/11/08 01:51:53;;;;;;;22.15;13.57;;;;;;;7.87;95.47;101003.84;5069548;28;20478;-69
2022/11/08 01:54:45;;;;;;;23.58;13.98;;;;;;;8.10;94.59;101030.88;5068840;28;20793;-69
2022/11/08 01:57:15;;;;;;;20.52;14.13;;;;;;;8.18;94.34;101022.69;5070520;28;20028;-69
2022/11/08 01:59:43;;;;;;;20.95;14.63;;;;;;;8.32;93.36;101024.31;5070660;28;20040;-69
2022/11/08 02:02:10;;;;;;;23.23;14.93;;;;;;;8.28;92.90;101022.41;5070427;28;20028;-70
2022/11/08 02:04:38;;;;;;;22.90;14.30;;;;;;;8.28;93.32;101022.41;5070434;28;20107;-70
2022/11/08 02:07:05;;;;;;;26.20;14.07;;;;;;;8.28;93.18;101018.94;5070641;28;20032;-72
2022/11/08 02:09:34;;;;;;;22.60;13.50;;;;;;;8.28;94.06;101019.81;5070416;28;20025;-69
2022/11/08 02:12:00;;;;;;;21.42;13.60;;;;;;;8.35;94.46;101023.59;5070232;28;20035;-69
2022/11/08 02:14:26;;;;;;;21.35;12.52;;;;;;;8.33;94.45;101027.81;5070319;28;20062;-69
2022/11/08 02:16:52;;;;;;;19.52;13.50;;;;;;;8.34;93.55;101029.59;5070242;28;20033;-69
2022/11/08 02:19:40;;;;;;;31.40;16.10;;;;;;;8.20;92.56;100992.78;5069159;28;20378;-69
2022/11/08 02:22:12;;;;;;;27.10;17.02;;;;;;;8.32;92.55;101024.31;5070543;28;20029;-69
2022/11/08 02:24:39;;;;;;;32.25;16.25;;;;;;;8.24;92.40;101011.06;5070366;28;20102;-69
2022/11/08 02:27:05;;;;;;;28.35;16.05;;;;;;;8.17;92.94;101008.94;5069227;28;20074;-69
2022/11/08 02:29:33;;;;;;;30.67;17.15;;;;;;;8.16;92.72;101024.28;5070481;28;20592;-69
2022/11/08 02:32:03;;;;;;;33.47;17.73;;;;;;;8.08;93.06;101026.44;5070449;28;20028;-69
2022/11/08 02:34:34;;;;;;;;;;;;;;;8.02;93.09;101015.81;5070582;28;20039;-69
2022/11/08 02:37:02;;;;;;;22.02;14.73;;;;;;;7.94;93.43;101028.25;5070391;28;19923;-69
2022/11/08 02:39:28;;;;;;;22.13;13.13;;;;;;;7.97;93.54;101024.94;5070365;28;20033;-74
2022/11/08 02:41:54;;;;;;;21.92;13.10;;;;;;;7.99;93.31;101028.47;5070522;28;20029;-70
2022/11/08 02:44:19;;;;;;;20.55;12.70;;;;;;;8.07;92.86;101016.94;5070244;28;20082;-69
2022/11/08 02:46:45;;;;;;;17.63;11.45;;;;;;;8.15;92.44;101020.84;5069664;28;20407;-69
2022/11/08 02:49:10;;;;;;;22.83;12.50;;;;;;;8.15;92.66;101020.84;5073890;28;20040;-70
2022/11/08 02:51:36;;;;;;;21.77;11.85;;;;;;;7.93;92.42;100977.63;5074307;28;20060;-69
2022/11/08 02:54:01;;;;;;;31.98;11.90;;;;;;;8.28;92.90;101026.66;5072672;28;20461;-69
2022/11/08 02:56:26;;;;;;;22.13;11.75;;;;;;;8.24;93.19;101020.47;5073838;28;20036;-69
2022/11/08 02:58:52;;;;;;;20.50;11.45;;;;;;;8.33;92.87;101025.22;5073104;28;20433;-69
2022/11/08 03:01:17;;;;;;;18.95;10.95;;;;;;;8.23;92.50;101018.69;5073636;28;20414;-70
2022/11/08 03:03:43;;;;;;;17.20;11.45;;;;;;;8.09;92.18;101003.38;5073923;28;20108;-70
2022/11/08 03:06:08;;;;;;;22.83;13.88;;;;;;;8.14;91.44;101021.63;5073476;28;20467;-69
2022/11/08 03:08:34;;;;;;;18.23;11.93;;;;;;;8.14;90.88;101020.72;5072460;28;20431;-69
2022/11/08 03:10:59;;;;;;;18.00;10.77;;;;;;;8.21;90.23;101021.19;5073515;28;20426;-70
2022/11/08 03:13:25;;;;;;;16.38;9.95;;;;;;;8.17;89.82;101024.38;5073397;28;20108;-69
2022/11/08 03:15:50;;;;;;;11.90;9.52;;;;;;;8.16;89.57;101024.28;5072172;28;20039;-69
2022/11/08 03:18:16;;;;;;;14.85;9.23;;;;;;;8.11;89.89;101018.88;5073426;28;20035;-68
2022/11/08 03:20:41;;;;;;;14.77;9.05;;;;;;;7.53;90.34;100926.56;5073153;28;20115;-70
2022/11/08 03:23:07;;;;;;;17.17;10.77;;;;;;;8.04;90.80;101014.22;5073578;28;20435;-72
2022/11/08 03:25:33;;;;;;;16.67;9.75;;;;;;;7.85;91.02;100989.13;5073474;28;20471;-69
2022/11/08 03:28:06;;;;;;;18.30;10.18;;;;;;;8.04;90.77;101027.94;5073371;28;20033;-70
2022/11/08 03:30:33;;;;;;;15.75;9.82;;;;;;;7.96;91.14;101018.91;5071978;28;20165;-69
2022/11/08 03:32:58;;;;;;;15.57;9.48;;;;;;;7.91;90.64;101020.34;5073054;28;20036;-70
2022/11/08 03:35:24;;;;;;;16.67;9.48;;;;;;;7.53;91.00;100971.09;5073132;28;20029;-69
2022/11/08 03:37:51;;;;;;;18.50;8.77;;;;;;;7.91;90.24;101026.38;5073055;28;20054;-69
2022/11/08 03:40:17;;;;;;;13.52;10.07;;;;;;;7.71;92.49;101024.34;5072904;28;20090;-69
2022/11/08 03:42:43;;;;;;;16.25;10.57;;;;;;;7.69;93.19;101024.28;5071854;28;20157;-69
2022/11/08 03:45:10;;;;;;;17.05;10.80;;;;;;;7.64;93.88;101028.25;5073363;28;20028;-69
2022/11/08 03:47:43;;;;;;;14.65;10.35;;;;;;;7.68;93.96;101026.75;5072267;28;20052;-69
2022/11/08 03:50:10;;;;;;;19.48;12.00;;;;;;;7.58;94.38;101021.06;5072922;28;20029;-69
2022/11/08 03:52:46;;;;;;;15.52;10.15;;;;;;;7.18;95.92;101031.59;5073041;28;20082;-69
2022/11/08 03:55:12;;;;;;;15.27;11.00;;;;;;;7.11;96.57;101021.72;5072852;28;20032;-72
2022/11/08 03:57:42;;;;;;;17.92;10.60;;;;;;;7.18;96.58;101007.56;5072842;28;20024;-74
2022/11/08 04:00:09;;;;;;;19.02;10.57;;;;;;;7.29;96.00;101009.13;5070737;28;20024;-73
2022/11/08 04:02:35;;;;;;;21.88;11.40;;;;;;;7.25;95.67;100984.03;5070561;28;20033;-73
2022/11/08 04:05:01;;;;;;;17.80;11.13;;;;;;;7.48;95.80;101018.78;5072863;28;20021;-69
2022/11/08 04:07:27;;;;;;;20.65;11.25;;;;;;;7.55;95.74;101026.03;5064949;28;20028;-68
2022/11/08 04:09:54;;;;;;;13.07;10.10;;;;;;;7.24;95.79;100967.75;5063533;28;20040;-67
2022/11/08 04:15:17;;;;;;;19.17;12.10;;;;;;;7.36;95.70;101021.50;5072202;28;20089;-68
2022/11/08 04:23:15;;;;;;;20.60;11.93;;;;;;;7.54;95.74;101025.94;5071454;28;20043;-69
2022/11/08 04:25:42;;;;;;;21.45;13.82;;;;;;;7.25;96.08;100972.09;5071749;28;20112;-69
2022/11/08 04:28:07;;;;;;;22.75;13.38;;;;;;;7.68;95.47;101024.19;5070948;28;20031;-69
2022/11/08 04:30:33;;;;;;;20.90;12.32;;;;;;;7.41;96.36;101027.81;5059951;28;20028;-69
2022/11/08 04:33:00;;;;;;;21.33;13.38;;;;;;;7.28;97.92;101030.44;5071704;28;20029;-68
2022/11/08 04:35:26;;;;;;;24.92;14.88;;;;;;;7.43;98.37;101031.34;5071221;28;20111;-68
2022/11/08 04:37:51;;;;;;;22.85;13.77;;;;;;;7.47;98.20;101032.41;5071180;28;20534;-67
2022/11/08 04:40:17;;;;;;;23.67;14.52;;;;;;;7.32;99.39;101036.66;5071131;28;20406;-66
2022/11/08 04:42:43;;;;;;;21.63;13.82;;;;;;;7.08;100.00;101037.84;5071026;28;20063;-66
2022/11/08 04:45:09;;;;;;;28.30;14.93;;;;;;;7.05;100.00;101032.53;5068954;28;20058;-70
2022/11/08 04:47:35;;;;;;;23.25;14.25;;;;;;;7.22;100.00;101036.09;5071467;28;20048;-70
2022/11/08 04:50:00;;;;;;;21.02;13.93;;;;;;;7.28;100.00;101036.47;5071226;28;20085;-68
2022/11/08 04:52:26;;;;;;;22.40;14.30;;;;;;;7.44;99.72;101042.53;5070300;28;20102;-68
2022/11/08 04:54:51;;;;;;;29.35;15.60;;;;;;;7.52;98.92;101043.84;5069783;28;20024;-69
2022/11/08 04:57:17;;;;;;;26.67;16.50;;;;;;;7.48;97.27;101023.00;5070986;28;20056;-68
2022/11/08 04:59:42;;;;;;;29.27;16.35;;;;;;;7.61;96.74;101043.47;5071465;28;20129;-70
2022/11/08 05:02:08;;;;;;;27.42;16.88;;;;;;;7.57;96.82;101029.56;5069681;28;20029;-70
2022/11/08 05:04:33;;;;;;;26.25;16.17;;;;;;;7.73;96.38;101044.19;5070855;28;20541;-72
2022/11/08 05:06:58;;;;;;;22.42;15.50;;;;;;;7.77;96.35;101037.56;5070562;28;20028;-69
2022/11/08 05:09:24;;;;;;;24.10;15.35;;;;;;;7.89;95.81;101056.25;5070909;28;20029;-71
2022/11/08 05:11:49;;;;;;;26.65;16.17;;;;;;;7.93;96.02;101059.88;5070633;28;20024;-71
2022/11/08 05:14:15;;;;;;;28.90;18.52;;;;;;;7.96;95.57;101064.31;5070240;28;20498;-69
2022/11/08 05:16:40;;;;;;;24.75;15.85;;;;;;;8.07;95.35;101068.38;5070469;28;20024;-71
2022/11/08 05:19:06;;;;;;;32.88;17.05;;;;;;;8.04;95.20;101069.09;5070692;28;20029;-71
2022/11/08 05:24:17;;;;;;;28.77;16.65;;;;;;;8.04;95.56;101068.22;5069327;28;20562;-72
2022/11/08 05:26:45;;;;;;;29.80;16.75;;;;;;;8.08;95.69;101072.72;5071189;28;20078;-72
2022/11/08 05:29:11;;;;;;;36.15;16.35;;;;;;;8.07;95.07;101073.53;5069631;28;20025;-72
2022/11/08 05:31:37;;;;;;;28.10;16.67;;;;;;;7.98;95.31;101061.03;5070963;28;20037;-73
2022/11/08 05:34:03;;;;;;;25.55;16.08;;;;;;;8.01;95.76;101078.31;5069586;28;20261;-70
2022/11/08 05:36:31;;;;;;;31.83;16.83;;;;;;;7.87;96.93;101064.69;5070854;28;20530;-70
2022/11/08 05:38:57;;;;;;;35.47;17.83;;;;;;;7.86;97.84;101081.78;5071123;28;20444;-74
2022/11/08 05:41:24;;;;;;;35.80;17.63;;;;;;;7.69;98.45;101074.75;5071052;28;20115;-70
2022/11/08 05:43:51;;;;;;;39.30;17.63;;;;;;;7.36;98.70;101012.91;5070775;28;20029;-71
2022/11/08 05:46:18;;;;;;;27.23;17.63;;;;;;;7.34;98.84;100992.28;5070628;28;20049;-70
2022/11/08 05:48:45;;;;;;;28.73;16.95;;;;;;;7.76;98.66;101082.94;5070757;28;20031;-70
2022/11/08 05:51:12;;;;;;;33.38;18.00;;;;;;;7.54;99.42;101093.63;5070988;28;20024;-70
2022/11/08 05:53:38;;;;;;;33.28;17.38;;;;;;;7.34;100.00;101088.97;5069531;28;20094;-70
2022/11/08 05:56:04;;;;;;;25.42;16.15;;;;;;;7.34;100.00;101088.97;5062628;28;20036;-71
2022/11/08 05:58:32;;;;;;;33.00;18.63;;;;;;;7.20;100.00;101059.91;5054520;28;20033;-70
2022/11/08 06:01:02;;;;;;;27.48;17.75;;;;;;;7.61;100.00;101092.31;5054610;28;20475;-71
2022/11/08 06:03:28;;;;;;;26.85;18.25;;;;;;;7.79;100.00;101102.78;5070318;28;20482;-72
2022/11/08 06:05:53;;;;;;;31.92;18.77;;;;;;;7.88;99.60;101099.88;5070685;28;20116;-71
2022/11/08 06:08:19;;;;;;;45.15;18.27;;;;;;;8.08;99.33;101108.72;5070496;28;20033;-77
2022/11/08 06:10:44;;;;;;;33.95;18.05;;;;;;;8.19;98.86;101111.94;5070377;28;20049;-72
2022/11/08 06:13:10;;;;;;;24.00;15.27;;;;;;;8.31;98.91;101120.34;5070356;28;20422;-71
2022/11/08 06:15:35;;;;;;;26.50;15.85;;;;;;;8.41;98.71;101107.19;5070599;28;20426;-72
2022/11/08 06:18:03;;;;;;;27.20;15.77;;;;;;;8.51;98.65;101107.72;5060136;28;20471;-70
2022/11/08 06:20:29;;;;;;;24.73;15.02;;;;;;;8.53;98.39;101108.69;5059478;28;20052;-71
2022/11/08 06:22:54;;;;;;;30.75;17.92;;;;;;;8.60;98.43;101118.53;5051447;28;20067;-73
2022/11/08 06:25:20;;;;;;;27.73;17.42;;;;;;;8.60;98.91;101117.63;5057605;28;20033;-68
2022/11/08 06:27:46;;;;;;;27.77;15.55;;;;;;;8.65;99.29;101122.25;5060657;28;20028;-70
2022/11/08 06:30:12;;;;;;;20.42;14.25;;;;;;;8.71;99.25;101124.25;5055101;28;20575;-67
2022/11/08 06:32:38;;;;;;;25.35;15.52;;;;;;;8.73;99.07;101121.00;5076225;28;20028;-74
2022/11/08 06:35:05;;;;;;;26.05;16.05;;;;;;;8.77;99.44;101129.75;5058275;28;20033;-71
2022/11/08 06:37:30;;;;;;;29.73;16.10;;;;;;;8.77;99.81;101128.88;5053853;28;20029;-72
2022/11/08 06:39:57;;;;;;;27.70;16.13;;;;;;;8.83;100.00;101139.50;5089219;28;20419;-73
2022/11/08 06:42:23;;;;;;;31.77;17.70;;;;;;;8.83;100.00;101126.63;5053044;28;20110;-72
2022/11/08 06:44:48;;;;;;;30.15;17.17;;;;;;;8.74;100.00;101137.31;5056585;28;20032;-72
2022/11/08 06:47:14;;;;;;;29.23;16.42;;;;;;;8.78;100.00;101136.66;5057844;28;20037;-72
2022/11/08 06:49:40;;;;;;;27.60;16.20;;;;;;;8.50;100.00;101132.56;5052912;28;20414;-69
2022/11/08 06:52:05;;;;;;;23.15;14.38;;;;;;;8.50;100.00;101136.81;5067346;28;20041;-71
2022/11/08 06:54:30;;;;;;;28.70;16.15;;;;;;;8.61;100.00;101145.16;5052613;28;20028;-70
2022/11/08 06:56:59;;;;;;;33.70;15.98;;;;;;;8.26;100.00;101104.63;5052657;28;20028;-71
2022/11/08 06:59:26;;;;;;;28.88;17.40;;;;;;;8.20;100.00;101090.53;5052619;28;20051;-70
2022/11/08 07:01:51;;;;;;;24.30;16.13;;;;;;;8.42;100.00;101154.38;5052836;28;20032;-71
2022/11/08 07:04:17;;;;;;;28.40;16.58;;;;;;;8.52;100.00;101154.16;5052739;28;20033;-73
2022/11/08 07:06:42;;;;;;;27.30;16.35;;;;;;;8.57;100.00;101149.22;5052690;28;20123;-71
2022/11/08 07:09:08;;;;;;;33.08;16.48;;;;;;;8.63;100.00;101149.56;5053869;28;20406;-74
2022/11/08 07:11:33;;;;;;;24.05;16.50;;;;;;;8.77;100.00;101150.34;5066469;28;20097;-69
2022/11/08 07:13:59;;;;;;;29.92;17.83;;;;;;;8.77;100.00;101132.31;5054161;28;20462;-70
2022/11/08 07:16:24;;;;;;;23.27;16.80;;;;;;;8.91;100.00;101156.28;5052722;28;20025;-74
2022/11/08 07:18:50;;;;;;;26.23;17.60;;;;;;;8.82;100.00;101151.50;5067030;28;20039;-72
2022/11/08 07:21:16;;;;;;;29.75;18.08;;;;;;;8.81;100.00;101147.16;5056610;28;20044;-70
2022/11/08 07:23:42;;;;;;;27.20;19.25;;;;;;;8.75;100.00;101110.78;5074829;28;20412;-70
2022/11/08 07:26:09;;;;;;;27.50;18.23;;;;;;;9.10;100.00;101153.00;5052585;28;20020;-69
2022/11/08 07:28:34;;;;;;;29.77;19.05;;;;;;;9.25;100.00;101155.50;5052005;28;20025;-68
2022/11/08 07:31:02;;;;;;;35.53;21.85;;;;;;;9.03;100.00;101117.41;5053464;28;20044;-70
2022/11/08 07:33:30;;;;;;;44.78;23.63;;;;;;;9.36;100.00;101146.66;5052302;28;20029;-69
2022/11/08 07:35:55;;;;;;;39.83;25.67;;;;;;;9.57;100.00;101137.38;5052307;28;20078;-70
2022/11/08 07:38:22;;;;;;;33.45;22.25;;;;;;;9.74;100.00;101143.41;5052068;28;20025;-69
2022/11/08 07:40:47;;;;;;;33.20;21.90;;;;;;;9.80;100.00;101139.44;5052511;28;20037;-69
2022/11/08 07:43:13;;;;;;;36.55;22.95;;;;;;;9.95;100.00;101133.31;5051800;28;20441;-71
2022/11/08 07:45:40;;;;;;;32.80;22.50;;;;;;;10.10;100.00;101133.19;5051879;28;20028;-69
2022/11/08 07:48:08;;;;;;;33.78;20.25;;;;;;;10.21;100.00;101134.59;5052303;28;20127;-69
2022/11/08 07:50:33;;;;;;;37.05;20.23;;;;;;;10.02;100.00;101083.78;5050790;28;20021;-69
2022/11/08 07:52:59;;;;;;;36.28;19.60;;;;;;;10.10;100.00;101082.44;5052140;28;20382;-73
2022/11/08 07:55:25;;;;;;;34.95;19.25;;;;;;;10.35;99.96;101133.56;5051695;28;20082;-70
2022/11/08 07:57:51;;;;;;;29.35;19.40;;;;;;;10.25;100.00;101130.47;5051592;28;20025;-68
2022/11/08 08:00:17;;;;;;;27.40;18.42;;;;;;;10.10;100.00;101123.72;5051762;28;20021;-71
2022/11/08 08:02:43;;;;;;;37.35;23.02;;;;;;;10.25;100.00;101128.75;5051505;28;20487;-72
2022/11/08 08:05:09;;;;;;;34.25;20.85;;;;;;;10.43;100.00;101136.56;5051949;28;20108;-71
2022/11/08 08:07:35;;;;;;;31.17;21.88;;;;;;;10.54;100.00;101125.84;5051446;28;20017;-69
2022/11/08 08:10:01;;;;;;;34.45;20.33;;;;;;;10.56;100.00;101119.06;5051211;28;20086;-69
2022/11/08 08:12:26;;;;;;;36.92;21.17;;;;;;;10.55;100.00;101131.06;5051636;28;20408;-72
2022/11/08 08:14:52;;;;;;;40.03;21.98;;;;;;;10.62;100.00;101127.13;5051502;28;20402;-71
2022/11/08 08:17:17;;;;;;;37.20;22.02;;;;;;;10.77;99.47;101132.97;5051307;28;20053;-70
2022/11/08 08:19:43;;;;;;;42.63;22.35;;;;;;;10.80;99.19;101120.22;5051359;28;20016;-72
2022/11/08 08:22:08;;;;;;;53.97;22.15;;;;;;;10.95;99.52;101135.56;5051213;28;20025;-73
2022/11/08 08:24:34;;;;;;;57.05;22.75;;;;;;;11.04;99.99;101134.19;5051319;28;20398;-70
2022/11/08 08:26:59;;;;;;;54.83;21.20;;;;;;;10.83;99.90;101084.19;5050893;28;20060;-71
2022/11/08 08:29:25;;;;;;;46.03;22.45;;;;;;;11.21;99.99;101132.38;5054416;28;20028;-72
2022/11/08 08:31:50;;;;;;;54.22;20.33;;;;;;;11.20;99.25;101136.63;5051548;28;20032;-72
2022/11/08 08:34:16;;;;;;;53.20;21.40;;;;;;;11.23;99.15;101117.84;5050996;28;20384;-69
2022/11/08 08:36:43;;;;;;;52.70;19.83;;;;;;;11.37;98.99;101129.66;5051302;28;20395;-74
2022/11/08 08:39:08;;;;;;;51.28;20.42;;;;;;;11.44;98.25;101135.97;5051183;28;20086;-72
2022/11/08 08:41:34;;;;;;;59.38;24.90;;;;;;;11.43;99.73;101124.75;5050612;28;20103;-72
2022/11/08 08:43:59;;;;;;;47.08;23.70;;;;;;;11.28;98.88;101098.25;5050699;28;20036;-73
2022/11/08 08:46:25;;;;;;;54.42;26.00;;;;;;;11.52;98.57;101133.75;5050122;28;20045;-72
2022/11/08 08:48:52;;;;;;;70.75;29.42;;;;;;;11.47;98.00;101134.41;5050870;28;20521;-72
2022/11/08 08:51:18;;;;;;;72.95;30.08;;;;;;;11.44;97.48;101118.78;5050812;28;20033;-70
2022/11/08 08:53:45;;;;;;;61.65;27.13;;;;;;;11.64;98.07;101129.97;5050654;28;20025;-72
2022/11/08 08:56:10;;;;;;;48.80;24.65;;;;;;;11.64;97.91;101127.38;5050299;28;20111;-72
2022/11/08 08:58:35;;;;;;;44.67;25.38;;;;;;;11.70;96.37;101126.78;5050455;28;20151;-72
2022/11/08 09:01:02;;;;;;;47.05;24.02;;;;;;;11.70;97.02;101126.78;5050354;28;20077;-73
2022/11/08 09:03:28;;;;;;;51.47;23.50;;;;;;;11.69;96.52;101125.00;5050438;28;20021;-72
2022/11/08 09:05:59;;;;;;;54.78;24.85;;;;;;;11.68;96.57;101122.38;5050388;28;20028;-72
2022/11/08 09:08:25;;;;;;;50.30;24.77;;;;;;;11.76;96.45;101129.63;5064130;28;20048;-73
2022/11/08 09:10:53;;;;;;;51.28;23.88;;;;;;;11.76;97.08;101114.09;5050436;28;20056;-73
2022/11/08 09:13:19;;;;;;;49.47;22.00;;;;;;;11.78;96.08;101107.28;5050563;28;20100;-72
2022/11/08 09:15:44;;;;;;;38.83;22.38;;;;;;;11.83;96.33;101120.41;5050423;28;20116;-71
2022/11/08 09:18:09;;;;;;;47.85;21.88;;;;;;;11.82;96.22;101114.38;5050419;28;20032;-72
2022/11/08 09:20:35;;;;;;;66.65;23.80;;;;;;;11.90;96.74;101116.38;5050433;28;20063;-69
2022/11/08 09:23:02;;;;;;;69.50;23.65;;;;;;;12.02;97.32;101116.06;5050234;28;20032;-73
2022/11/08 09:25:27;;;;;;;65.28;22.75;;;;;;;12.10;97.03;101118.13;5049821;28;20754;-71
2022/11/08 09:27:53;;;;;;;84.13;23.42;;;;;;;12.21;96.38;101117.69;5050255;28;20029;-70
2022/11/08 09:30:19;;;;;;;63.33;22.02;;;;;;;12.27;95.88;101111.06;5050203;28;20032;-70
2022/11/08 09:32:44;;;;;;;62.88;23.05;;;;;;;12.27;96.07;101115.34;5052301;28;20029;-70
2022/11/08 09:35:09;;;;;;;67.70;20.13;;;;;;;12.46;95.86;101111.75;5049911;28;20031;-71
2022/11/08 09:37:35;;;;;;;64.20;16.45;;;;;;;12.51;95.90;101111.97;5050018;28;20064;-71
2022/11/08 09:40:01;;;;;;;44.58;16.38;;;;;;;12.57;94.98;101102.75;5049881;28;20542;-73
2022/11/08 09:43:15;;;;;;;62.00;19.50;;;;;;;12.58;94.80;101103.59;5049709;28;20029;-70
2022/11/08 09:45:45;;;;;;;42.03;16.67;;;;;;;12.72;94.45;101101.53;5047411;28;20126;-72
2022/11/08 09:48:25;;;;;;;58.67;20.02;;;;;;;12.67;94.58;101098.78;5046913;28;20041;-73
2022/11/08 09:50:53;;;;;;;48.30;17.45;;;;;;;12.72;94.33;101102.44;5047159;28;20055;-70
2022/11/08 09:53:48;;;;;;;51.13;18.25;;;;;;;12.79;93.67;101090.59;5030519;28;20044;-70
2022/11/08 09:56:37;;;;;;;51.42;17.30;;;;;;;12.87;93.56;101099.56;5046723;28;20048;-70
2022/11/08 09:59:14;;;;;;;47.03;17.58;;;;;;;12.97;93.49;101098.16;5007043;28;20210;-73
2022/11/08 10:01:41;;;;;;;46.83;17.77;;;;;;;12.89;93.66;101047.78;5007419;28;20030;-71
2022/11/08 10:04:18;;;;;;;50.20;16.73;;;;;;;13.17;92.90;101082.47;5007254;28;20077;-72
2022/11/08 10:07:00;;;;;;;46.38;15.25;;;;;;;13.33;91.98;101092.56;5009646;28;20030;-73
2022/11/08 10:09:34;;;;;;;42.22;15.48;;;;;;;13.42;92.30;101089.44;5000536;28;20042;-73
2022/11/08 10:12:03;;;;;;;34.92;14.07;;;;;;;13.47;91.68;101092.19;5004605;28;20030;-73
2022/11/08 10:14:36;;;;;;;36.65;14.38;;;;;;;13.57;91.38;101074.44;4991637;28;20540;-73
2022/11/08 10:17:20;;;;;;;29.85;14.02;;;;;;;13.68;92.38;101077.41;5007906;28;20033;-73
2022/11/08 10:20:11;;;;;;;38.60;15.07;;;;;;;13.78;91.31;101082.88;5007624;28;20504;-73
2022/11/08 10:22:42;;;;;;;36.00;14.35;;;;;;;13.61;91.73;101046.88;5007392;28;20036;-72
2022/11/08 10:25:46;;;;;;;31.10;14.77;;;;;;;13.91;91.70;101072.09;5020373;28;20510;-72
2022/11/08 10:28:15;;;;;;;29.60;15.02;;;;;;;14.11;89.22;101079.66;5007662;28;20566;-72
2022/11/08 10:30:45;;;;;;;41.95;21.00;;;;;;;14.02;89.30;101059.47;5007520;28;20174;-72
2022/11/08 10:33:21;;;;;;;32.22;14.88;;;;;;;14.26;88.39;101068.88;5007824;28;20500;-73
2022/11/08 10:36:17;;;;;;;40.60;16.63;;;;;;;14.38;88.86;101070.13;4998891;28;20546;-73
2022/11/08 10:38:55;;;;;;;44.28;18.90;;;;;;;14.45;87.41;101059.91;4956076;28;20053;-74
2022/11/08 10:41:32;;;;;;;37.53;15.85;;;;;;;14.09;87.55;100983.50;4968344;28;20441;-73
2022/11/08 10:44:05;;;;;;;46.85;18.63;;;;;;;14.55;89.28;101061.97;4968665;28;20134;-72
2022/11/08 10:46:38;;;;;;;72.05;25.85;;;;;;;14.38;86.98;101041.56;4968178;28;20054;-73
2022/11/08 10:49:17;;;;;;;46.88;20.20;;;;;;;14.40;88.09;101055.47;4968806;28;20054;-72
2022/11/08 10:51:45;;;;;;;50.00;20.25;;;;;;;14.39;88.52;101056.31;4968545;28;20579;-73
2022/11/08 10:54:40;;;;;;;53.42;18.63;;;;;;;14.40;88.58;101057.19;4968746;28;20050;-74
2022/11/08 10:57:06;;;;;;;47.33;19.02;;;;;;;14.40;88.06;101052.88;4891383;29;20087;-70
2022/11/08 10:59:32;;;;;;;66.03;20.90;;;;;;;14.46;87.96;101053.91;4891652;29;20504;-74
2022/11/08 11:01:59;;;;;;;56.75;19.73;;;;;;;14.44;87.98;101039.97;4903090;29;20146;-74
2022/11/08 11:04:28;;;;;;;60.90;18.35;;;;;;;14.57;87.68;101053.38;4920977;29;20050;-74
2022/11/08 11:06:53;;;;;;;55.00;18.83;;;;;;;14.56;86.77;101046.41;4949382;29;20027;-74
2022/11/08 11:09:25;;;;;;;53.83;17.73;;;;;;;14.65;86.55;101056.22;4950248;28;20054;-72
2022/11/08 11:11:59;;;;;;;47.58;18.20;;;;;;;14.73;87.03;101033.09;4936329;29;20031;-72
2022/11/08 11:14:25;;;;;;;51.88;17.50;;;;;;;14.84;86.65;101033.38;4955919;28;20039;-73
2022/11/08 11:16:55;;;;;;;53.20;17.15;;;;;;;14.62;86.13;100998.94;5011266;28;20551;-74
2022/11/08 11:19:22;;;;;;;41.28;15.68;;;;;;;14.86;85.68;101037.78;5011159;28;20053;-75
2022/11/08 11:21:55;;;;;;;41.65;16.92;;;;;;;14.87;84.88;101036.06;5010738;28;20473;-74
2022/11/08 11:24:21;;;;;;;49.03;17.55;;;;;;;14.84;85.42;101028.16;5011173;28;20108;-74
2022/11/08 11:26:55;;;;;;;44.75;16.33;;;;;;;14.91;86.30;101027.50;5010987;28;20668;-74
2022/11/08 11:29:48;;;;;;;45.10;16.60;;;;;;;14.93;86.37;101027.56;5011094;28;20045;-74
2022/11/08 11:32:30;;;;;;;56.17;17.27;;;;;;;14.85;85.42;101011.75;4971443;28;20051;-73
2022/11/08 11:34:58;;;;;;;58.22;18.95;;;;;;;14.95;84.66;101025.88;5040116;28;20044;-75
2022/11/08 11:37:31;;;;;;;48.28;18.50;;;;;;;14.87;84.68;101021.34;5019608;28;20042;-73
2022/11/08 11:40:06;;;;;;;53.40;19.10;;;;;;;14.87;85.17;101018.75;5049957;28;20044;-74